Terminal Aerodrome Forecast
Issued by NWS Wichita, KS

Home | Current Version | Previous Version | Text Only | Print | Product List | Glossary On
Versions: 1 2 3 4 5 6 7 8 9 10 11 12 13 14 15 16 17 18 19 20 21 22
186
FTUS43 KICT 290156 AAC
TAFICT
TAF AMD
KICT 290156Z 2902/2924 02011KT P6SM VCTS BKN020CB OVC100
     FM290230 05008KT P6SM SCT100 SCT250
     FM290900 01007KT P6SM SCT060
     FM291200 01006KT P6SM FEW250=

USA.gov is the U.S. government's official web portal to all federal, state and local government web resources and services.